createdAt,value
2017-05-27T00:00:59.607Z,2.66
2017-05-27T00:03:26.610Z,3.56
2017-05-27T00:05:54.737Z,2.80
2017-05-27T00:08:21.734Z,3.10
2017-05-27T00:10:49.746Z,3.52
2017-05-27T00:13:17.027Z,2.60
2017-05-27T00:15:44.062Z,3.10
2017-05-27T00:18:11.075Z,2.76
2017-05-27T00:20:39.242Z,3.34
2017-05-27T00:23:06.283Z,3.76
2017-05-27T00:25:33.280Z,3.20
2017-05-27T00:28:01.414Z,2.94
2017-05-27T00:30:28.941Z,3.30
2017-05-27T00:32:55.935Z,3.12
2017-05-27T00:35:23.294Z,3.86
2017-05-27T00:37:50.306Z,3.10
2017-05-27T00:40:17.304Z,3.26
2017-05-27T00:42:45.569Z,3.40
2017-05-27T00:45:12.569Z,4.20
2017-05-27T00:47:39.573Z,3.50
2017-05-27T00:50:06.909Z,4.12
2017-05-27T00:52:33.917Z,4.38
2017-05-27T00:55:00.941Z,3.34
2017-05-27T00:57:28.231Z,3.30
2017-05-27T00:59:55.246Z,3.30
2017-05-27T01:02:23.250Z,3.42
2017-05-27T01:04:50.554Z,3.56
2017-05-27T01:07:17.537Z,3.04
2017-05-27T01:09:44.529Z,3.40
2017-05-27T01:12:11.857Z,3.36
2017-05-27T01:14:38.880Z,4.84
2017-05-27T01:17:05.870Z,4.00
2017-05-27T01:19:33.166Z,3.68
2017-05-27T01:22:00.631Z,3.64
2017-05-27T01:24:27.631Z,3.52
2017-05-27T01:26:54.968Z,3.60
2017-05-27T01:29:21.961Z,3.78
2017-05-27T01:31:48.990Z,4.02
2017-05-27T01:34:16.303Z,3.52
2017-05-27T01:36:43.310Z,4.06
2017-05-27T01:39:10.340Z,3.88
2017-05-27T01:41:37.690Z,4.38
2017-05-27T01:44:03.967Z,3.90
2017-05-27T01:46:30.990Z,4.68
2017-05-27T01:48:59.322Z,3.50
2017-05-27T01:51:26.326Z,3.88
2017-05-27T01:53:53.326Z,5.04
2017-05-27T01:56:21.546Z,3.84
2017-05-27T01:58:48.539Z,4.50
2017-05-27T02:01:15.557Z,4.12
2017-05-27T02:03:43.651Z,3.66
2017-05-27T02:06:10.673Z,4.30
2017-05-27T02:08:37.670Z,3.88
2017-05-27T02:11:04.982Z,4.48
2017-05-27T02:13:31.973Z,4.10
2017-05-27T02:15:58.986Z,4.16
2017-05-27T02:18:26.331Z,3.46
2017-05-27T02:20:53.339Z,3.66
2017-05-27T02:23:20.342Z,3.86
2017-05-27T02:25:47.681Z,4.42
2017-05-27T02:28:14.677Z,3.90
2017-05-27T02:30:41.693Z,4.06
2017-05-27T02:33:09.026Z,4.28
2017-05-27T02:35:37.038Z,3.92
2017-05-27T02:38:04.034Z,5.68
2017-05-27T02:40:31.385Z,4.80
2017-05-27T02:42:58.391Z,5.28
2017-05-27T02:45:24.645Z,4.54
2017-05-27T02:47:51.257Z,4.52
2017-05-27T02:50:18.282Z,4.52
2017-05-27T02:52:45.309Z,4.48
2017-05-27T02:55:13.477Z,4.90
2017-05-27T02:57:40.478Z,4.72
2017-05-27T03:00:07.473Z,5.16
2017-05-27T03:02:34.761Z,5.48
2017-05-27T03:05:01.010Z,5.08
2017-05-27T03:07:28.010Z,4.70
2017-05-27T03:09:55.361Z,4.50
2017-05-27T03:12:22.361Z,4.60
2017-05-27T03:14:49.360Z,4.78
2017-05-27T03:17:16.647Z,5.46
2017-05-27T03:19:43.650Z,5.52
2017-05-27T03:22:10.647Z,5.64
2017-05-27T03:24:38.026Z,7.12
2017-05-27T03:27:05.044Z,5.50
2017-05-27T03:29:35.936Z,6.00
2017-05-27T03:32:02.943Z,5.82
2017-05-27T03:34:29.953Z,6.78
2017-05-27T03:36:57.259Z,5.38
2017-05-27T03:39:25.029Z,5.70
2017-05-27T03:41:52.033Z,5.52
2017-05-27T03:44:19.424Z,4.72
2017-05-27T03:46:46.438Z,5.18
2017-05-27T03:49:13.449Z,4.68
2017-05-27T03:51:40.753Z,5.14
2017-05-27T03:54:08.436Z,5.02
2017-05-27T03:56:35.436Z,5.54
2017-05-27T03:59:02.949Z,5.80
2017-05-27T04:01:29.958Z,5.60
2017-05-27T04:03:57.793Z,6.30
2017-05-27T04:06:24.909Z,6.20
2017-05-27T04:08:51.921Z,6.48
2017-05-27T04:11:18.921Z,5.62
2017-05-27T04:13:46.233Z,6.10
2017-05-27T04:16:14.073Z,6.18
2017-05-27T04:18:41.077Z,6.24
2017-05-27T04:21:10.177Z,6.44
2017-05-27T04:23:37.161Z,6.04
2017-05-27T04:26:04.168Z,5.90
2017-05-27T04:28:31.498Z,5.96
2017-05-27T04:30:58.501Z,6.02
2017-05-27T04:33:25.504Z,6.46
2017-05-27T04:35:53.717Z,5.82
2017-05-27T04:38:20.718Z,5.54
2017-05-27T04:40:48.722Z,6.44
2017-05-27T04:43:17.019Z,5.44
2017-05-27T04:45:44.027Z,4.98
2017-05-27T04:48:11.025Z,5.66
2017-05-27T04:50:38.389Z,5.04
2017-05-27T04:53:05.377Z,4.68
2017-05-27T04:55:32.371Z,4.02
2017-05-27T04:57:59.842Z,4.60
2017-05-27T05:00:26.862Z,4.62
2017-05-27T05:02:54.718Z,4.60
2017-05-27T05:05:22.102Z,4.72
2017-05-27T05:07:49.134Z,4.76
2017-05-27T05:10:16.173Z,4.70
2017-05-27T05:12:43.557Z,4.40
2017-05-27T05:15:10.565Z,4.62
2017-05-27T05:17:38.577Z,4.22
2017-05-27T05:20:05.197Z,3.60
2017-05-27T05:22:33.196Z,3.36
2017-05-27T05:25:00.204Z,4.44
2017-05-27T05:27:27.517Z,4.00
2017-05-27T05:29:54.525Z,4.38
2017-05-27T05:32:21.518Z,4.60
2017-05-27T05:34:50.457Z,3.86
2017-05-27T05:37:19.153Z,3.66
2017-05-27T05:39:46.158Z,3.36
2017-05-27T05:42:13.543Z,3.02
2017-05-27T05:44:40.830Z,3.08
2017-05-27T05:47:07.125Z,3.62
2017-05-27T05:49:35.341Z,2.98
2017-05-27T05:52:03.254Z,3.38
2017-05-27T05:54:30.910Z,3.00
2017-05-27T05:56:59.302Z,3.36
2017-05-27T05:59:26.301Z,3.24
2017-05-27T06:01:53.307Z,2.84
2017-05-27T06:04:20.658Z,3.22
2017-05-27T06:06:47.719Z,2.60
2017-05-27T06:09:14.724Z,3.06
2017-05-27T06:11:42.097Z,2.94
2017-05-27T06:14:09.101Z,2.12
2017-05-27T06:16:37.090Z,2.64
2017-05-27T06:19:06.203Z,2.70
2017-05-27T06:21:33.213Z,2.70
2017-05-27T06:24:00.245Z,2.52
2017-05-27T06:26:29.207Z,2.52
2017-05-27T06:28:56.208Z,2.56
2017-05-27T06:31:23.202Z,3.22
2017-05-27T06:33:50.541Z,2.24
2017-05-27T06:36:17.553Z,2.32
2017-05-27T06:38:44.858Z,2.84
2017-05-27T06:41:13.418Z,2.52
2017-05-27T06:43:40.441Z,2.12
2017-05-27T06:46:07.474Z,2.20
2017-05-27T06:48:34.502Z,2.62
2017-05-27T06:51:02.393Z,2.60
2017-05-27T06:53:30.357Z,2.28
2017-05-27T06:55:57.381Z,2.64
2017-05-27T06:58:24.699Z,2.24
2017-05-27T07:00:53.323Z,2.00
2017-05-27T07:03:20.413Z,2.34
2017-05-27T07:05:48.703Z,2.20
2017-05-27T07:08:16.642Z,2.20
2017-05-27T07:10:45.454Z,2.24
2017-05-27T07:13:12.483Z,2.46
2017-05-27T07:15:39.505Z,2.16
2017-05-27T07:18:06.526Z,2.18
2017-05-27T07:20:33.549Z,2.78
2017-05-27T07:23:00.565Z,2.50
2017-05-27T07:25:27.581Z,2.14
2017-05-27T07:27:54.593Z,2.32
2017-05-27T07:30:21.609Z,2.48
2017-05-27T07:32:48.616Z,2.62
2017-05-27T07:35:14.901Z,2.40
2017-05-27T07:37:42.978Z,2.68
2017-05-27T07:40:10.002Z,2.44
2017-05-27T07:42:37.021Z,3.18
2017-05-27T07:45:04.029Z,2.50
2017-05-27T07:47:31.361Z,2.36
2017-05-27T07:49:58.361Z,2.34
2017-05-27T07:52:25.900Z,2.52
2017-05-27T07:54:53.217Z,2.32
2017-05-27T07:57:20.754Z,2.80
2017-05-27T07:59:47.967Z,2.78
2017-05-27T08:02:14.781Z,2.32
2017-05-27T08:04:42.641Z,2.94
2017-05-27T08:07:09.646Z,2.60
2017-05-27T08:09:37.042Z,2.48
2017-05-27T08:12:04.090Z,2.12
2017-05-27T08:14:31.114Z,2.16
2017-05-27T08:17:00.129Z,3.16
2017-05-27T08:19:27.170Z,2.50
2017-05-27T08:21:53.805Z,2.36
2017-05-27T08:24:20.846Z,2.28
2017-05-27T08:26:47.847Z,2.42
2017-05-27T08:29:15.168Z,2.24
2017-05-27T08:31:43.102Z,2.10
2017-05-27T08:34:17.234Z,2.12
2017-05-27T08:36:44.230Z,2.34
2017-05-27T08:39:11.234Z,2.18
2017-05-27T08:41:38.577Z,2.30
2017-05-27T08:44:05.572Z,2.38
2017-05-27T08:46:32.575Z,2.66
2017-05-27T08:49:00.817Z,2.34
2017-05-27T08:51:27.843Z,2.32
2017-05-27T08:53:54.122Z,2.50
2017-05-27T08:56:22.401Z,2.30
2017-05-27T08:58:49.435Z,2.22
2017-05-27T09:01:16.511Z,2.10
2017-05-27T09:03:44.041Z,2.14
2017-05-27T09:06:11.042Z,2.10
2017-05-27T09:08:38.044Z,2.08
2017-05-27T09:11:05.406Z,2.42
2017-05-27T09:13:32.999Z,2.50
2017-05-27T09:16:00.321Z,6.60
2017-05-27T09:18:27.342Z,2.26
2017-05-27T09:20:54.375Z,2.54
2017-05-27T09:23:21.697Z,2.32
2017-05-27T09:25:48.746Z,2.34
2017-05-27T09:28:16.548Z,1.88
2017-05-27T09:30:43.569Z,2.64
2017-05-27T09:33:10.616Z,2.28
2017-05-27T09:35:37.649Z,2.08
2017-05-27T09:38:04.674Z,2.52
2017-05-27T09:40:31.694Z,2.42
2017-05-27T09:42:58.713Z,2.60
2017-05-27T09:45:25.733Z,2.48
2017-05-27T09:47:52.753Z,2.28
2017-05-27T09:50:20.622Z,3.12
2017-05-27T09:52:48.785Z,2.78
2017-05-27T09:55:15.829Z,2.98
2017-05-27T09:57:42.818Z,2.60
2017-05-27T10:00:11.065Z,2.58
2017-05-27T10:02:38.406Z,2.38
2017-05-27T10:05:06.241Z,2.12
2017-05-27T10:07:33.741Z,2.72
2017-05-27T10:10:02.078Z,2.42
2017-05-27T10:12:29.622Z,2.62
2017-05-27T10:14:56.678Z,2.72
2017-05-27T10:17:23.693Z,2.50
2017-05-27T10:19:51.243Z,2.06
2017-05-27T10:22:18.657Z,3.10
2017-05-27T10:24:45.741Z,2.38
2017-05-27T10:27:12.745Z,2.92
2017-05-27T10:29:41.993Z,2.50
2017-05-27T10:32:09.791Z,2.76
2017-05-27T10:34:36.814Z,2.40
2017-05-27T10:37:04.482Z,2.82
2017-05-27T10:39:31.503Z,2.60
2017-05-27T10:41:59.357Z,2.30
2017-05-27T10:44:27.373Z,2.06
2017-05-27T10:46:54.398Z,2.50
2017-05-27T10:49:21.419Z,2.48
2017-05-27T10:51:48.710Z,2.44
2017-05-27T10:54:15.804Z,2.38
2017-05-27T10:56:42.850Z,2.66
2017-05-27T10:59:09.869Z,2.88
2017-05-27T11:01:37.249Z,2.34
2017-05-27T11:04:04.269Z,2.62
2017-05-27T11:06:31.282Z,2.46
2017-05-27T11:08:59.274Z,2.72
2017-05-27T11:11:26.297Z,3.08
2017-05-27T11:13:53.318Z,2.42
2017-05-27T11:16:21.505Z,2.72
2017-05-27T11:18:48.537Z,2.76
2017-05-27T11:21:16.536Z,3.16
2017-05-27T11:23:44.775Z,2.42
2017-05-27T11:26:12.774Z,2.44
2017-05-27T11:28:39.793Z,2.02
2017-05-27T11:31:08.753Z,1.98
2017-05-27T11:33:36.782Z,2.52
2017-05-27T11:36:04.065Z,2.82
2017-05-27T11:38:32.101Z,2.34
2017-05-27T11:40:59.147Z,2.76
2017-05-27T11:43:26.979Z,3.16
2017-05-27T11:45:54.009Z,3.00
2017-05-27T11:48:22.030Z,3.36
2017-05-27T11:50:49.041Z,2.58
2017-05-27T11:53:16.358Z,2.88
2017-05-27T11:55:44.083Z,2.24
2017-05-27T11:58:11.086Z,2.52
2017-05-27T12:00:39.269Z,2.50
2017-05-27T12:03:07.445Z,2.46
2017-05-27T12:05:34.446Z,2.68
2017-05-27T12:08:02.465Z,2.42
2017-05-27T12:10:29.813Z,2.20
2017-05-27T12:12:57.518Z,2.74
2017-05-27T12:15:24.514Z,2.72
2017-05-27T12:17:52.561Z,2.24
2017-05-27T12:20:20.122Z,2.24
2017-05-27T12:22:47.121Z,2.24
2017-05-27T12:25:13.718Z,2.30
2017-05-27T12:27:40.727Z,2.42
2017-05-27T12:30:08.382Z,2.10
2017-05-27T12:32:37.133Z,2.30
2017-05-27T12:35:03.391Z,2.42
2017-05-27T12:37:30.582Z,2.10
2017-05-27T12:39:59.742Z,2.10
2017-05-27T12:42:26.730Z,2.08
2017-05-27T12:44:54.261Z,2.06
2017-05-27T12:47:22.685Z,2.24
2017-05-27T12:49:50.698Z,2.08
2017-05-27T12:52:17.702Z,2.14
2017-05-27T12:54:45.049Z,2.54
2017-05-27T12:57:13.864Z,1.96
2017-05-27T12:59:41.193Z,2.20
2017-05-27T13:02:09.334Z,2.22
2017-05-27T13:04:37.394Z,2.12
2017-05-27T13:07:04.450Z,1.92
2017-05-27T13:09:32.436Z,2.04
2017-05-27T13:12:00.002Z,2.26
2017-05-27T13:14:27.008Z,1.86
2017-05-27T13:16:56.358Z,1.84
2017-05-27T13:19:24.175Z,2.00
2017-05-27T13:21:51.179Z,2.02
2017-05-27T13:24:18.521Z,1.98
2017-05-27T13:26:46.081Z,1.86
2017-05-27T13:29:13.087Z,1.86
2017-05-27T13:31:40.378Z,1.80
2017-05-27T13:34:07.370Z,1.56
2017-05-27T13:36:35.307Z,1.98
2017-05-27T13:39:03.666Z,1.94
2017-05-27T13:41:30.665Z,1.98
2017-05-27T13:43:57.679Z,1.90
2017-05-27T13:46:25.954Z,1.96
2017-05-27T13:48:52.956Z,2.00
2017-05-27T13:51:19.962Z,1.88
2017-05-27T13:53:47.281Z,2.26
2017-05-27T13:56:15.945Z,1.52
2017-05-27T13:58:42.951Z,1.90
2017-05-27T14:01:11.299Z,1.76
2017-05-27T14:03:38.298Z,1.84
2017-05-27T14:06:06.146Z,1.60
2017-05-27T14:08:34.441Z,1.84
2017-05-27T14:11:01.447Z,1.70
2017-05-27T14:13:28.443Z,1.90
2017-05-27T14:15:55.825Z,1.76
2017-05-27T14:18:22.830Z,2.06
2017-05-27T14:20:49.086Z,5.54
2017-05-27T14:23:16.390Z,6.92
2017-05-27T14:25:44.433Z,12.88
2017-05-27T14:28:11.443Z,1.98
2017-05-27T14:30:39.437Z,4.10
2017-05-27T14:33:05.710Z,2.02
2017-05-27T14:35:32.716Z,2.10
2017-05-27T14:38:00.069Z,2.00
2017-05-27T14:40:27.596Z,1.68
2017-05-27T14:42:54.593Z,1.96
2017-05-27T14:45:21.925Z,2.10
2017-05-27T14:47:48.918Z,1.74
2017-05-27T14:50:15.994Z,2.02
2017-05-27T14:52:44.040Z,2.16
2017-05-27T14:55:12.066Z,3.88
2017-05-27T14:57:39.078Z,11.50
2017-05-27T15:00:06.458Z,2.02
2017-05-27T15:02:33.465Z,15.26
2017-05-27T15:05:01.453Z,2.30
2017-05-27T15:07:28.629Z,2.18
2017-05-27T15:09:56.549Z,1.96
2017-05-27T15:12:27.350Z,1.70
2017-05-27T15:14:54.691Z,1.78
2017-05-27T15:17:21.691Z,1.82
2017-05-27T15:19:47.946Z,1.74
2017-05-27T15:22:15.322Z,2.42
2017-05-27T15:24:43.326Z,2.14
2017-05-27T15:27:10.329Z,2.34
2017-05-27T15:29:38.345Z,1.96
2017-05-27T15:32:05.355Z,2.22
2017-05-27T15:34:34.016Z,1.82
2017-05-27T15:37:01.893Z,2.04
2017-05-27T15:39:28.894Z,1.94
2017-05-27T15:41:55.881Z,1.82
2017-05-27T15:44:23.374Z,2.08
2017-05-27T15:46:50.380Z,1.88
2017-05-27T15:49:17.389Z,2.26
2017-05-27T15:51:44.694Z,1.78
2017-05-27T15:54:11.702Z,1.90
2017-05-27T15:56:38.704Z,2.14
2017-05-27T15:59:06.981Z,1.70
2017-05-27T16:01:33.985Z,1.96
2017-05-27T16:04:00.986Z,1.78
2017-05-27T16:06:29.042Z,1.88
2017-05-27T16:08:57.038Z,1.80
2017-05-27T16:11:24.033Z,2.02
2017-05-27T16:13:52.061Z,1.98
2017-05-27T16:16:19.071Z,2.24
2017-05-27T16:18:47.075Z,2.40
2017-05-27T16:21:15.802Z,2.18
2017-05-27T16:23:43.382Z,2.20
2017-05-27T16:26:10.386Z,1.90
2017-05-27T16:28:37.768Z,2.28
2017-05-27T16:31:06.329Z,2.30
2017-05-27T16:33:34.746Z,2.08
2017-05-27T16:36:02.074Z,1.88
2017-05-27T16:38:29.082Z,2.18
2017-05-27T16:40:56.085Z,2.10
2017-05-27T16:43:23.422Z,2.00
2017-05-27T16:45:50.417Z,1.74
2017-05-27T16:48:16.682Z,2.10
2017-05-27T16:50:44.977Z,2.20
2017-05-27T16:53:11.258Z,2.20
2017-05-27T16:55:38.285Z,2.14
2017-05-27T16:58:06.459Z,2.22
2017-05-27T17:00:33.449Z,2.10
2017-05-27T17:03:00.454Z,2.18
2017-05-27T17:05:28.510Z,2.30
2017-05-27T17:07:55.510Z,2.44
2017-05-27T17:10:22.519Z,2.52
2017-05-27T17:12:49.826Z,2.32
2017-05-27T17:15:16.858Z,2.48
2017-05-27T17:17:43.863Z,2.80
2017-05-27T17:20:12.142Z,2.82
2017-05-27T17:22:39.145Z,2.52
2017-05-27T17:25:06.151Z,2.72
2017-05-27T17:27:34.202Z,3.12
2017-05-27T17:30:01.201Z,2.74
2017-05-27T17:32:28.226Z,3.64
2017-05-27T17:34:56.273Z,3.42
2017-05-27T17:37:23.306Z,3.44
2017-05-27T17:39:51.261Z,3.06
2017-05-27T17:42:19.327Z,3.54
2017-05-27T17:44:46.330Z,3.34
2017-05-27T17:47:13.333Z,3.04
2017-05-27T17:49:41.454Z,3.16
2017-05-27T17:52:08.461Z,3.24
2017-05-27T17:54:35.463Z,3.28
2017-05-27T17:57:02.814Z,3.00
2017-05-27T17:59:30.749Z,3.08
2017-05-27T18:01:57.749Z,3.40
2017-05-27T18:04:26.098Z,3.38
2017-05-27T18:06:53.132Z,3.40
2017-05-27T18:09:20.147Z,3.80
2017-05-27T18:11:47.566Z,3.38
2017-05-27T18:14:14.569Z,3.56
2017-05-27T18:16:42.265Z,3.10
2017-05-27T18:19:09.565Z,3.12
2017-05-27T18:21:36.578Z,3.44
2017-05-27T18:24:03.584Z,3.70
2017-05-27T18:26:31.718Z,3.90
2017-05-27T18:28:58.717Z,3.56
2017-05-27T18:31:26.358Z,3.82
2017-05-27T18:33:52.933Z,3.80
2017-05-27T18:36:19.946Z,3.92
2017-05-27T18:38:46.949Z,3.80
2017-05-27T18:41:15.230Z,3.74
2017-05-27T18:43:42.242Z,3.78
2017-05-27T18:46:09.357Z,3.56
2017-05-27T18:48:36.737Z,4.28
2017-05-27T18:51:04.773Z,4.22
2017-05-27T18:53:31.981Z,4.06
2017-05-27T18:56:00.002Z,4.34
2017-05-27T18:58:26.989Z,4.04
2017-05-27T19:00:53.981Z,3.70
2017-05-27T19:03:21.323Z,3.92
2017-05-27T19:05:48.334Z,3.70
2017-05-27T19:08:15.355Z,3.52
2017-05-27T19:10:42.652Z,3.10
2017-05-27T19:13:09.677Z,3.32
2017-05-27T19:15:36.678Z,3.78
2017-05-27T19:18:04.958Z,3.80
2017-05-27T19:20:31.972Z,3.74
2017-05-27T19:22:59.584Z,3.60
2017-05-27T19:25:26.869Z,4.10
2017-05-27T19:27:53.896Z,3.60
2017-05-27T19:30:20.890Z,3.60
2017-05-27T19:32:48.186Z,3.72
2017-05-27T19:35:15.210Z,4.02
2017-05-27T19:37:42.225Z,3.62
2017-05-27T19:40:09.538Z,4.46
2017-05-27T19:42:36.570Z,4.30
2017-05-27T19:45:04.173Z,3.78
2017-05-27T19:47:31.494Z,4.04
2017-05-27T19:49:58.481Z,4.28
2017-05-27T19:52:25.486Z,4.10
2017-05-27T19:54:53.410Z,3.82
2017-05-27T19:57:20.431Z,4.08
2017-05-27T19:59:47.457Z,4.30
2017-05-27T20:02:14.810Z,4.82
2017-05-27T20:04:41.818Z,4.18
2017-05-27T20:07:08.829Z,4.50
2017-05-27T20:09:36.148Z,4.34
2017-05-27T20:12:03.149Z,4.00
2017-05-27T20:14:30.151Z,4.06
2017-05-27T20:16:58.244Z,4.50
2017-05-27T20:19:26.214Z,4.06
2017-05-27T20:21:53.842Z,4.14
2017-05-27T20:24:21.195Z,4.08
2017-05-27T20:26:50.555Z,4.52
2017-05-27T20:29:17.554Z,4.32
2017-05-27T20:31:44.890Z,4.40
2017-05-27T20:34:11.901Z,4.70
2017-05-27T20:36:39.848Z,4.32
2017-05-27T20:39:07.166Z,3.86
2017-05-27T20:41:34.183Z,8.44
2017-05-27T20:44:01.189Z,4.38
2017-05-27T20:46:28.506Z,3.64
2017-05-27T20:48:55.519Z,4.18
2017-05-27T20:51:22.521Z,4.10
2017-05-27T20:53:49.849Z,4.74
2017-05-27T20:56:16.841Z,4.12
2017-05-27T20:58:44.559Z,5.28
2017-05-27T21:01:11.910Z,4.76
2017-05-27T21:03:38.913Z,4.40
2017-05-27T21:06:05.190Z,4.12
2017-05-27T21:08:33.450Z,4.70
2017-05-27T21:11:01.025Z,4.00
2017-05-27T21:13:28.027Z,5.22
2017-05-27T21:15:55.318Z,5.14
2017-05-27T21:18:22.326Z,4.68
2017-05-27T21:20:49.326Z,4.34
2017-05-27T21:23:17.716Z,4.50
2017-05-27T21:25:45.292Z,4.34
2017-05-27T21:28:12.826Z,4.42
2017-05-27T21:30:40.669Z,4.10
2017-05-27T21:33:07.661Z,3.86
2017-05-27T21:35:34.727Z,4.06
2017-05-27T21:38:02.818Z,3.52
2017-05-27T21:40:29.846Z,4.10
2017-05-27T21:42:57.589Z,4.14
2017-05-27T21:45:25.879Z,4.58
2017-05-27T21:47:52.905Z,4.38
2017-05-27T21:50:19.902Z,4.10
2017-05-27T21:52:47.990Z,4.48
2017-05-27T21:55:15.029Z,4.50
2017-05-27T21:57:42.561Z,4.32
2017-05-27T22:00:09.945Z,4.14
2017-05-27T22:02:36.946Z,3.78
2017-05-27T22:05:04.796Z,4.04
2017-05-27T22:07:32.674Z,4.02
2017-05-27T22:10:00.841Z,3.74
2017-05-27T22:12:27.843Z,4.38
2017-05-27T22:14:55.939Z,4.06
2017-05-27T22:17:22.948Z,3.42
2017-05-27T22:19:51.267Z,4.00
2017-05-27T22:22:18.690Z,4.36
2017-05-27T22:24:45.697Z,3.96
2017-05-27T22:27:12.753Z,4.08
2017-05-27T22:29:40.962Z,4.22
2017-05-27T22:32:07.973Z,4.46
2017-05-27T22:34:34.973Z,4.32
2017-05-27T22:37:02.301Z,6.22
2017-05-27T22:39:29.306Z,4.02
2017-05-27T22:41:57.589Z,5.32
2017-05-27T22:44:25.596Z,4.60
2017-05-27T22:46:53.433Z,4.90
2017-05-27T22:49:20.438Z,5.26
2017-05-27T22:51:47.745Z,4.90
2017-05-27T22:54:14.742Z,5.04
2017-05-27T22:56:41.755Z,4.72
2017-05-27T22:59:09.903Z,5.44
2017-05-27T23:01:36.907Z,4.86
2017-05-27T23:04:03.909Z,4.22
2017-05-27T23:06:31.270Z,3.74
2017-05-27T23:08:58.274Z,4.40
2017-05-27T23:11:25.964Z,4.68
2017-05-27T23:13:54.208Z,4.10
2017-05-27T23:16:21.222Z,4.94
2017-05-27T23:18:48.225Z,3.98
2017-05-27T23:21:15.605Z,4.76
2017-05-27T23:23:43.535Z,4.22
2017-05-27T23:26:10.529Z,3.96
2017-05-27T23:28:38.709Z,4.12
2017-05-27T23:31:06.533Z,3.98
2017-05-27T23:33:33.538Z,4.90
2017-05-27T23:36:03.862Z,6.30
2017-05-27T23:38:30.866Z,4.98
2017-05-27T23:40:57.861Z,4.58
2017-05-27T23:43:25.909Z,4.22
2017-05-27T23:45:53.471Z,4.62
2017-05-27T23:48:20.469Z,4.40
2017-05-27T23:50:47.841Z,4.50
2017-05-27T23:53:14.873Z,4.60
2017-05-27T23:55:42.421Z,4.26
2017-05-27T23:58:09.807Z,4.08
